Time,TemperatureF,DewpointF,PressureIn,WindDirection,WindDirectionDegrees,WindSpeedMPH,WindSpeedGustMPH,Humidity,HourlyPrecipIn,Conditions,Clouds,dailyrainin,SoftwareType,DateUTC
2013-01-17 00:03:00,31.2,28.8,30.27,NW,310,0.0,0.0,90,0.00,,,-99.99,Meteorologica,2013-01-17 06:03:00,
2013-01-17 00:08:00,30.9,28.5,30.27,NW,310,0.0,0.0,90,0.00,,,-99.99,Meteorologica,2013-01-17 06:08:00,
2013-01-17 00:13:00,30.9,28.6,30.27,NW,310,0.0,0.0,91,0.00,,,-99.99,Meteorologica,2013-01-17 06:13:00,
2013-01-17 00:18:00,30.7,28.5,30.28,NW,310,0.0,0.0,91,0.00,,,-99.99,Meteorologica,2013-01-17 06:18:00,
2013-01-17 00:23:00,30.6,28.3,30.28,NW,310,0.0,0.0,91,0.00,,,-99.99,Meteorologica,2013-01-17 06:23:00,
2013-01-17 00:28:00,30.6,28.3,30.29,NW,310,0.0,0.0,91,0.00,,,-99.99,Meteorologica,2013-01-17 06:28:00,
2013-01-17 00:33:00,30.5,28.3,30.29,NW,310,0.0,0.0,91,0.00,,,-99.99,Meteorologica,2013-01-17 06:33:00,
2013-01-17 00:38:00,30.2,27.9,30.29,NW,310,0.0,0.0,91,0.00,,,-99.99,Meteorologica,2013-01-17 06:38:00,
2013-01-17 00:43:00,29.9,27.7,30.30,NW,310,0.0,0.0,91,0.00,,,-99.99,Meteorologica,2013-01-17 06:43:00,
2013-01-17 00:48:00,29.7,27.5,30.30,NW,310,0.0,0.0,91,0.00,,,-99.99,Meteorologica,2013-01-17 06:48:00,
2013-01-17 00:53:00,29.6,27.4,30.31,NW,310,0.0,0.0,91,0.00,,,-99.99,Meteorologica,2013-01-17 06:53:00,
2013-01-17 00:58:00,29.4,27.3,30.31,NW,310,0.0,0.0,91,0.00,,,-99.99,Meteorologica,2013-01-17 06:58:00,
2013-01-17 01:03:00,29.3,27.2,30.31,NW,310,0.0,0.0,91,0.00,,,-99.99,Meteorologica,2013-01-17 07:03:00,
2013-01-17 01:08:00,29.1,27.0,30.31,NW,310,0.0,0.0,92,0.00,,,-99.99,Meteorologica,2013-01-17 07:08:00,
2013-01-17 01:13:00,29.1,27.0,30.32,NW,310,0.0,0.0,91,0.00,,,-99.99,Meteorologica,2013-01-17 07:13:00,
2013-01-17 01:18:00,28.9,26.8,30.32,NW,310,0.0,0.0,91,0.00,,,-99.99,Meteorologica,2013-01-17 07:18:00,
2013-01-17 01:23:00,28.8,26.8,30.32,NW,310,0.0,0.0,92,0.00,,,-99.99,Meteorologica,2013-01-17 07:23:00,
2013-01-17 01:29:00,28.7,26.7,30.32,NW,310,0.0,0.0,92,0.00,,,-99.99,Meteorologica,2013-01-17 07:29:00,
2013-01-17 01:34:00,28.6,26.6,30.33,NW,310,0.0,0.0,92,0.00,,,-99.99,Meteorologica,2013-01-17 07:34:00,
2013-01-17 01:39:00,28.5,26.6,30.34,NW,310,0.0,0.0,92,0.00,,,-99.99,Meteorologica,2013-01-17 07:39:00,
2013-01-17 01:44:00,28.7,26.8,30.34,NW,310,0.0,0.0,92,0.00,,,-99.99,Meteorologica,2013-01-17 07:44:00,
2013-01-17 01:49:00,28.6,26.7,30.35,NW,310,0.0,0.0,92,0.00,,,-99.99,Meteorologica,2013-01-17 07:49:00,
2013-01-17 01:54:00,28.5,26.6,30.35,NW,310,0.0,0.0,92,0.00,,,-99.99,Meteorologica,2013-01-17 07:54:00,
2013-01-17 01:59:00,28.4,26.5,30.35,NW,310,0.0,0.0,92,0.00,,,-99.99,Meteorologica,2013-01-17 07:59:00,
2013-01-17 02:04:00,28.2,26.3,30.35,NW,310,0.0,0.0,92,0.00,,,-99.99,Meteorologica,2013-01-17 08:04:00,
2013-01-17 02:10:00,28.1,26.2,30.35,NW,310,0.0,0.0,92,0.00,,,-99.99,Meteorologica,2013-01-17 08:10:00,
2013-01-17 02:16:00,28.1,26.3,30.36,NW,310,0.0,0.0,92,0.00,,,-99.99,Meteorologica,2013-01-17 08:16:00,
2013-01-17 02:21:00,27.9,26.0,30.36,NW,310,0.0,0.0,92,0.00,,,-99.99,Meteorologica,2013-01-17 08:21:00,
2013-01-17 02:26:00,27.9,26.1,30.36,NW,310,0.0,0.0,92,0.00,,,-99.99,Meteorologica,2013-01-17 08:26:00,
2013-01-17 02:31:00,27.8,26.0,30.37,NW,310,0.0,0.0,93,0.00,,,-99.99,Meteorologica,2013-01-17 08:31:00,
2013-01-17 02:36:00,27.9,26.1,30.37,NW,310,0.0,0.0,93,0.00,,,-99.99,Meteorologica,2013-01-17 08:36:00,
2013-01-17 02:41:00,27.8,26.1,30.37,NW,310,0.0,0.0,93,0.00,,,-99.99,Meteorologica,2013-01-17 08:41:00,
2013-01-17 02:46:00,27.7,25.9,30.37,NW,310,0.0,0.0,93,0.00,,,-99.99,Meteorologica,2013-01-17 08:46:00,
2013-01-17 02:51:00,27.7,25.9,30.36,NW,310,0.0,0.0,93,0.00,,,-99.99,Meteorologica,2013-01-17 08:51:00,
2013-01-17 02:56:00,27.6,25.8,30.37,NW,310,0.0,0.0,93,0.00,,,-99.99,Meteorologica,2013-01-17 08:56:00,
2013-01-17 03:01:00,27.6,25.8,30.37,NW,310,0.0,0.0,93,0.00,,,-99.99,Meteorologica,2013-01-17 09:01:00,
2013-01-17 03:06:00,27.4,25.6,30.38,NW,310,0.0,0.0,93,0.00,,,-99.99,Meteorologica,2013-01-17 09:06:00,
2013-01-17 03:12:00,27.3,25.5,30.37,NW,310,0.0,0.0,93,0.00,,,-99.99,Meteorologica,2013-01-17 09:12:00,
2013-01-17 03:17:00,27.2,25.5,30.37,NW,310,0.0,0.0,93,0.00,,,-99.99,Meteorologica,2013-01-17 09:17:00,
2013-01-17 03:22:00,27.1,25.4,30.37,NW,310,0.0,0.0,93,0.00,,,-99.99,Meteorologica,2013-01-17 09:22:00,
2013-01-17 03:27:00,27.1,25.4,30.38,NW,310,0.0,0.0,93,0.00,,,-99.99,Meteorologica,2013-01-17 09:27:00,
2013-01-17 03:32:00,27.0,25.3,30.38,NW,310,0.0,0.0,93,0.00,,,-99.99,Meteorologica,2013-01-17 09:32:00,
2013-01-17 03:37:00,27.1,25.4,30.37,NW,310,0.0,0.0,93,0.00,,,-99.99,Meteorologica,2013-01-17 09:37:00,
2013-01-17 03:42:00,26.9,25.2,30.37,NW,310,0.0,0.0,93,0.00,,,-99.99,Meteorologica,2013-01-17 09:42:00,
2013-01-17 03:47:00,26.9,25.2,30.38,NW,310,0.0,0.0,93,0.00,,,-99.99,Meteorologica,2013-01-17 09:47:00,
2013-01-17 03:52:00,26.7,25.0,30.38,NW,310,0.0,0.0,93,0.00,,,-99.99,Meteorologica,2013-01-17 09:52:00,
2013-01-17 03:57:00,26.5,24.8,30.38,NW,310,0.0,0.0,93,0.00,,,-99.99,Meteorologica,2013-01-17 09:57:00,
2013-01-17 04:02:00,26.4,24.7,30.38,NW,310,0.0,0.0,93,0.00,,,-99.99,Meteorologica,2013-01-17 10:02:00,
2013-01-17 04:07:00,26.2,24.5,30.38,NW,310,0.0,0.0,93,0.00,,,-99.99,Meteorologica,2013-01-17 10:07:00,
2013-01-17 04:12:00,26.0,24.3,30.38,NW,310,0.0,0.0,93,0.00,,,-99.99,Meteorologica,2013-01-17 10:12:00,
2013-01-17 04:17:00,25.9,24.2,30.39,NW,310,0.0,0.0,93,0.00,,,-99.99,Meteorologica,2013-01-17 10:17:00,
2013-01-17 04:22:00,25.9,24.3,30.39,NW,310,0.0,0.0,93,0.00,,,-99.99,Meteorologica,2013-01-17 10:22:00,
2013-01-17 04:28:00,25.9,24.3,30.39,NW,310,0.0,0.0,93,0.00,,,-99.99,Meteorologica,2013-01-17 10:28:00,
2013-01-17 04:34:00,25.8,24.2,30.39,NW,310,0.0,0.0,93,0.00,,,-99.99,Meteorologica,2013-01-17 10:34:00,
2013-01-17 04:39:00,25.6,24.0,30.40,NW,310,0.0,0.0,93,0.00,,,-99.99,Meteorologica,2013-01-17 10:39:00,
2013-01-17 04:44:00,25.5,23.9,30.40,NW,310,0.0,0.0,93,0.00,,,-99.99,Meteorologica,2013-01-17 10:44:00,
2013-01-17 04:49:00,25.4,23.8,30.40,NW,310,0.0,0.0,93,0.00,,,-99.99,Meteorologica,2013-01-17 10:49:00,
2013-01-17 04:54:00,25.4,23.8,30.40,NW,310,0.0,0.0,93,0.00,,,-99.99,Meteorologica,2013-01-17 10:54:00,
2013-01-17 04:59:00,25.2,23.6,30.40,NW,310,0.0,0.0,93,0.00,,,-99.99,Meteorologica,2013-01-17 10:59:00,
2013-01-17 05:05:00,25.1,23.5,30.40,NW,310,0.0,0.0,93,0.00,,,-99.99,Meteorologica,2013-01-17 11:05:00,
2013-01-17 05:10:00,25.1,23.4,30.40,NW,310,0.0,0.0,93,0.00,,,-99.99,Meteorologica,2013-01-17 11:10:00,
2013-01-17 05:15:00,25.0,23.4,30.40,NW,310,0.0,0.0,93,0.00,,,-99.99,Meteorologica,2013-01-17 11:15:00,
2013-01-17 05:20:00,25.0,23.4,30.40,NW,310,0.0,0.0,93,0.00,,,-99.99,Meteorologica,2013-01-17 11:20:00,
2013-01-17 05:25:00,25.0,23.4,30.40,NW,310,0.0,0.0,93,0.00,,,-99.99,Meteorologica,2013-01-17 11:25:00,
2013-01-17 05:30:00,24.9,23.3,30.40,NW,310,0.0,0.0,93,0.00,,,-99.99,Meteorologica,2013-01-17 11:30:00,
2013-01-17 05:35:00,24.9,23.3,30.40,NW,310,0.0,0.0,93,0.00,,,-99.99,Meteorologica,2013-01-17 11:35:00,
2013-01-17 05:40:00,24.8,23.2,30.40,NW,310,0.0,0.0,93,0.00,,,-99.99,Meteorologica,2013-01-17 11:40:00,
2013-01-17 05:45:00,24.8,23.2,30.41,NW,310,0.0,0.0,93,0.00,,,-99.99,Meteorologica,2013-01-17 11:45:00,
2013-01-17 05:50:00,24.8,23.2,30.41,NW,310,0.0,0.0,93,0.00,,,-99.99,Meteorologica,2013-01-17 11:50:00,
2013-01-17 05:55:00,24.8,23.3,30.41,NW,310,0.0,0.0,94,0.00,,,-99.99,Meteorologica,2013-01-17 11:55:00,
2013-01-17 06:00:00,24.8,23.3,30.41,NW,310,0.0,0.0,94,0.00,,,-99.99,Meteorologica,2013-01-17 12:00:00,
2013-01-17 06:05:00,24.9,23.4,30.41,NW,310,0.0,0.0,94,0.00,,,-99.99,Meteorologica,2013-01-17 12:05:00,
2013-01-17 06:10:00,24.7,23.2,30.41,NW,310,0.0,0.0,94,0.00,,,-99.99,Meteorologica,2013-01-17 12:10:00,
2013-01-17 06:15:00,24.7,23.2,30.41,NW,310,0.0,0.0,94,0.00,,,-99.99,Meteorologica,2013-01-17 12:15:00,
2013-01-17 06:20:00,24.7,23.2,30.42,NW,310,0.0,0.0,94,0.00,,,-99.99,Meteorologica,2013-01-17 12:20:00,
2013-01-17 06:25:00,24.6,23.1,30.41,NW,310,0.0,0.0,94,0.00,,,-99.99,Meteorologica,2013-01-17 12:25:00,
2013-01-17 06:30:00,24.5,23.0,30.42,NW,310,0.0,0.0,94,0.00,,,-99.99,Meteorologica,2013-01-17 12:30:00,
2013-01-17 06:35:00,24.3,22.8,30.42,NW,310,0.0,0.0,93,0.00,,,-99.99,Meteorologica,2013-01-17 12:35:00,
2013-01-17 06:40:00,24.1,22.6,30.42,NW,310,0.0,0.0,93,0.00,,,-99.99,Meteorologica,2013-01-17 12:40:00,
2013-01-17 06:45:00,24.0,22.5,30.42,NW,310,0.0,0.0,93,0.00,,,-99.99,Meteorologica,2013-01-17 12:45:00,
2013-01-17 06:50:00,23.7,22.2,30.42,NW,310,0.0,0.0,93,0.00,,,-99.99,Meteorologica,2013-01-17 12:50:00,
2013-01-17 06:55:00,23.5,22.0,30.43,NW,310,0.0,0.0,94,0.00,,,-99.99,Meteorologica,2013-01-17 12:55:00,
2013-01-17 07:00:00,23.3,21.8,30.42,NW,310,0.0,0.0,93,0.00,,,-99.99,Meteorologica,2013-01-17 13:00:00,
2013-01-17 07:05:00,23.2,21.6,30.43,NW,310,0.0,0.0,93,0.00,,,-99.99,Meteorologica,2013-01-17 13:05:00,
2013-01-17 07:10:00,23.1,21.6,30.43,NW,310,0.0,0.0,94,0.00,,,-99.99,Meteorologica,2013-01-17 13:10:00,
2013-01-17 07:15:00,23.1,21.6,30.43,NW,310,0.0,0.0,94,0.00,,,-99.99,Meteorologica,2013-01-17 13:15:00,
2013-01-17 07:20:00,23.0,21.5,30.43,NW,310,0.0,0.0,94,0.00,,,-99.99,Meteorologica,2013-01-17 13:20:00,
2013-01-17 07:25:00,23.0,21.5,30.43,NW,310,0.0,0.0,94,0.00,,,-99.99,Meteorologica,2013-01-17 13:25:00,
2013-01-17 07:30:00,22.9,21.4,30.44,NW,310,0.0,0.0,94,0.00,,,-99.99,Meteorologica,2013-01-17 13:30:00,
2013-01-17 07:35:00,22.9,21.4,30.43,NW,310,0.0,0.0,94,0.00,,,-99.99,Meteorologica,2013-01-17 13:35:00,
2013-01-17 07:40:00,22.9,21.4,30.44,NW,310,0.0,0.0,94,0.00,,,-99.99,Meteorologica,2013-01-17 13:40:00,
2013-01-17 07:45:00,23.0,21.5,30.44,NW,310,0.0,0.0,94,0.00,,,-99.99,Meteorologica,2013-01-17 13:45:00,
2013-01-17 07:50:00,23.0,21.5,30.44,NW,310,0.0,0.0,94,0.00,,,-99.99,Meteorologica,2013-01-17 13:50:00,
2013-01-17 07:55:00,23.1,21.6,30.44,NW,310,0.0,0.0,94,0.00,,,-99.99,Meteorologica,2013-01-17 13:55:00,
2013-01-17 08:00:00,23.0,21.5,30.44,NW,310,0.0,0.0,94,0.00,,,-99.99,Meteorologica,2013-01-17 14:00:00,
2013-01-17 08:05:00,22.9,21.4,30.45,NW,310,0.0,0.0,94,0.00,,,-99.99,Meteorologica,2013-01-17 14:05:00,
2013-01-17 08:10:00,22.9,21.4,30.45,NW,310,0.0,0.0,93,0.00,,,-99.99,Meteorologica,2013-01-17 14:10:00,
2013-01-17 08:15:00,22.9,21.4,30.45,NW,310,0.0,0.0,94,0.00,,,-99.99,Meteorologica,2013-01-17 14:15:00,
2013-01-17 08:20:00,23.0,21.5,30.45,NW,310,0.0,0.0,94,0.00,,,-99.99,Meteorologica,2013-01-17 14:20:00,
2013-01-17 08:25:00,23.1,21.7,30.45,NW,310,0.0,0.0,94,0.00,,,-99.99,Meteorologica,2013-01-17 14:25:00,
2013-01-17 08:30:00,23.4,22.0,30.46,NW,310,0.0,0.0,94,0.00,,,-99.99,Meteorologica,2013-01-17 14:30:00,
2013-01-17 08:35:00,23.9,22.5,30.47,NW,310,0.0,0.0,94,0.00,,,-99.99,Meteorologica,2013-01-17 14:35:00,
2013-01-17 08:40:00,24.1,22.7,30.46,NW,310,0.0,0.0,94,0.00,,,-99.99,Meteorologica,2013-01-17 14:40:00,
2013-01-17 08:45:00,24.5,23.1,30.47,NW,310,0.0,0.0,94,0.00,,,-99.99,Meteorologica,2013-01-17 14:45:00,
2013-01-17 08:50:00,24.8,23.4,30.47,NW,310,0.0,0.0,94,0.00,,,-99.99,Meteorologica,2013-01-17 14:50:00,
2013-01-17 08:55:00,25.1,23.7,30.47,NW,310,0.0,0.0,94,0.00,,,-99.99,Meteorologica,2013-01-17 14:55:00,
2013-01-17 09:00:00,25.5,24.1,30.48,NW,310,0.0,0.0,94,0.00,,,-99.99,Meteorologica,2013-01-17 15:00:00,
2013-01-17 09:05:00,25.8,24.4,30.48,NW,310,0.0,0.0,94,0.00,,,-99.99,Meteorologica,2013-01-17 15:05:00,
2013-01-17 09:10:00,26.0,24.6,30.48,NW,310,0.0,0.0,94,0.00,,,-99.99,Meteorologica,2013-01-17 15:10:00,
2013-01-17 09:15:00,26.5,25.1,30.48,NW,310,0.0,0.0,94,0.00,,,-99.99,Meteorologica,2013-01-17 15:15:00,
2013-01-17 09:20:00,26.7,25.3,30.49,NW,310,0.0,0.0,94,0.00,,,-99.99,Meteorologica,2013-01-17 15:20:00,
2013-01-17 09:25:00,27.7,26.4,30.49,NW,310,0.0,0.0,95,0.00,,,-99.99,Meteorologica,2013-01-17 15:25:00,
2013-01-17 09:30:00,28.7,27.4,30.49,NW,310,0.0,0.0,95,0.00,,,-99.99,Meteorologica,2013-01-17 15:30:00,
2013-01-17 09:35:00,29.7,28.2,30.50,NW,310,0.0,0.0,94,0.00,,,-99.99,Meteorologica,2013-01-17 15:35:00,
2013-01-17 09:40:00,30.8,29.1,30.50,NW,310,0.0,0.0,93,0.00,,,-99.99,Meteorologica,2013-01-17 15:40:00,
2013-01-17 09:45:00,31.7,29.9,30.50,NW,310,0.0,0.0,93,0.00,,,-99.99,Meteorologica,2013-01-17 15:45:00,
2013-01-17 09:50:00,32.7,30.7,30.50,NW,310,0.0,0.0,92,0.00,,,-99.99,Meteorologica,2013-01-17 15:50:00,
2013-01-17 09:55:00,33.7,31.5,30.50,NW,310,0.0,0.0,91,0.00,,,-99.99,Meteorologica,2013-01-17 15:55:00,
2013-01-17 10:00:00,34.4,31.9,30.50,NW,310,0.0,0.0,90,0.00,,,-99.99,Meteorologica,2013-01-17 16:00:00,
2013-01-17 10:05:00,35.1,32.0,30.51,NW,310,0.0,0.0,88,0.00,,,-99.99,Meteorologica,2013-01-17 16:05:00,
2013-01-17 10:10:00,35.5,32.2,30.51,NW,310,0.0,0.0,87,0.00,,,-99.99,Meteorologica,2013-01-17 16:10:00,
2013-01-17 10:15:00,35.8,32.9,30.51,NW,310,0.0,0.0,89,0.00,,,-99.99,Meteorologica,2013-01-17 16:15:00,
2013-01-17 10:20:00,36.4,33.2,30.51,NW,310,0.0,0.0,88,0.00,,,-99.99,Meteorologica,2013-01-17 16:20:00,
2013-01-17 10:25:00,37.3,33.7,30.51,NW,310,0.0,0.0,86,0.00,,,-99.99,Meteorologica,2013-01-17 16:25:00,
2013-01-17 10:30:00,37.9,34.0,30.51,NW,310,0.0,0.0,85,0.00,,,-99.99,Meteorologica,2013-01-17 16:30:00,
2013-01-17 10:35:00,38.5,34.5,30.51,NW,310,0.0,0.0,85,0.00,,,-99.99,Meteorologica,2013-01-17 16:35:00,
2013-01-17 10:40:00,39.2,34.7,30.51,NW,310,0.0,0.0,83,0.00,,,-99.99,Meteorologica,2013-01-17 16:40:00,
2013-01-17 10:45:00,39.6,35.1,30.50,NW,310,0.0,0.0,83,0.00,,,-99.99,Meteorologica,2013-01-17 16:45:00,
2013-01-17 10:50:00,39.9,35.2,30.51,NW,310,0.0,0.0,83,0.00,,,-99.99,Meteorologica,2013-01-17 16:50:00,
2013-01-17 10:55:00,40.3,35.6,30.50,NW,310,0.0,0.0,83,0.00,,,-99.99,Meteorologica,2013-01-17 16:55:00,
2013-01-17 11:00:00,40.8,35.8,30.50,NW,310,0.0,0.0,82,0.00,,,-99.99,Meteorologica,2013-01-17 17:00:00,
2013-01-17 11:05:00,41.4,36.4,30.50,NW,310,0.0,0.0,82,0.00,,,-99.99,Meteorologica,2013-01-17 17:05:00,
2013-01-17 11:10:00,41.7,36.2,30.50,NW,310,0.0,0.0,80,0.00,,,-99.99,Meteorologica,2013-01-17 17:10:00,
2013-01-17 11:15:00,41.7,36.3,30.50,WSW,237,0.0,3.5,81,0.00,,,-99.99,Meteorologica,2013-01-17 17:15:00,
2013-01-17 11:20:00,41.7,36.1,30.50,WSW,237,0.0,0.0,80,0.00,,,-99.99,Meteorologica,2013-01-17 17:20:00,
2013-01-17 11:25:00,42.0,36.1,30.50,SW,217,3.0,6.8,79,0.00,,,-99.99,Meteorologica,2013-01-17 17:25:00,
2013-01-17 11:30:00,42.2,36.2,30.50,SSW,208,0.0,0.0,78,0.00,,,-99.99,Meteorologica,2013-01-17 17:30:00,
2013-01-17 11:35:00,42.8,36.5,30.50,SSW,200,0.0,0.0,78,0.00,,,-99.99,Meteorologica,2013-01-17 17:35:00,
2013-01-17 11:40:00,43.3,36.5,30.50,SSW,200,0.0,0.0,76,0.00,,,-99.99,Meteorologica,2013-01-17 17:40:00,
2013-01-17 11:45:00,43.5,36.8,30.50,SSW,200,0.0,0.0,76,0.00,,,-99.99,Meteorologica,2013-01-17 17:45:00,
2013-01-17 11:50:00,44.0,36.7,30.50,SW,217,2.7,4.6,75,0.00,,,-99.99,Meteorologica,2013-01-17 17:50:00,
2013-01-17 11:55:00,44.5,37.0,30.50,SW,223,2.5,5.6,74,0.00,,,-99.99,Meteorologica,2013-01-17 17:55:00,
2013-01-17 12:00:00,44.7,36.9,30.50,WSW,258,1.9,6.6,73,0.00,,,-99.99,Meteorologica,2013-01-17 18:00:00,
2013-01-17 12:05:00,44.8,36.8,30.49,SW,224,0.0,0.0,73,0.00,,,-99.99,Meteorologica,2013-01-17 18:05:00,
2013-01-17 12:10:00,44.9,37.0,30.48,SW,216,1.0,5.9,73,0.00,,,-99.99,Meteorologica,2013-01-17 18:10:00,
2013-01-17 12:15:00,45.3,37.0,30.48,SW,235,0.0,0.0,71,0.00,,,-99.99,Meteorologica,2013-01-17 18:15:00,
2013-01-17 12:20:00,45.9,37.2,30.47,South,189,1.9,6.5,71,0.00,,,-99.99,Meteorologica,2013-01-17 18:20:00,
2013-01-17 12:25:00,46.3,37.2,30.47,WSW,252,3.5,5.6,69,0.00,,,-99.99,Meteorologica,2013-01-17 18:25:00,
2013-01-17 12:30:00,46.5,37.0,30.46,West,278,0.0,0.0,68,0.00,,,-99.99,Meteorologica,2013-01-17 18:30:00,
2013-01-17 12:35:00,46.6,37.3,30.46,SSW,206,2.1,5.8,69,0.00,,,-99.99,Meteorologica,2013-01-17 18:35:00,
2013-01-17 12:40:00,47.0,37.3,30.46,WSW,241,2.6,7.3,68,0.00,,,-99.99,Meteorologica,2013-01-17 18:40:00,
2013-01-17 12:45:00,47.1,37.3,30.46,West,271,0.0,0.0,68,0.00,,,-99.99,Meteorologica,2013-01-17 18:45:00,
2013-01-17 12:50:00,47.6,37.2,30.45,West,274,4.4,6.1,66,0.00,,,-99.99,Meteorologica,2013-01-17 18:50:00,
2013-01-17 12:55:00,48.0,37.4,30.45,South,187,2.6,9.0,66,0.00,,,-99.99,Meteorologica,2013-01-17 18:55:00,
2013-01-17 13:00:00,48.4,37.3,30.45,WNW,285,0.0,4.4,65,0.00,,,-99.99,Meteorologica,2013-01-17 19:00:00,
2013-01-17 13:05:00,48.6,37.3,30.44,WSW,247,2.6,8.1,64,0.00,,,-99.99,Meteorologica,2013-01-17 19:05:00,
2013-01-17 13:10:00,48.9,36.8,30.44,WNW,302,3.9,10.3,62,0.00,,,-99.99,Meteorologica,2013-01-17 19:10:00,
2013-01-17 13:15:00,49.2,37.3,30.43,West,281,0.8,7.1,63,0.00,,,-99.99,Meteorologica,2013-01-17 19:15:00,
2013-01-17 13:20:00,50.0,37.3,30.43,WSW,245,1.2,8.2,61,0.00,,,-99.99,Meteorologica,2013-01-17 19:20:00,
2013-01-17 13:25:00,50.1,37.1,30.42,WNW,295,6.2,11.3,60,0.00,,,-99.99,Meteorologica,2013-01-17 19:25:00,
2013-01-17 13:30:00,50.2,37.5,30.42,WSW,256,0.0,8.0,61,0.00,,,-99.99,Meteorologica,2013-01-17 19:30:00,
2013-01-17 13:35:00,51.0,37.4,30.42,WSW,245,0.3,8.9,59,0.00,,,-99.99,Meteorologica,2013-01-17 19:35:00,
2013-01-17 13:40:00,51.3,37.2,30.42,West,268,4.5,9.8,58,0.00,,,-99.99,Meteorologica,2013-01-17 19:40:00,
2013-01-17 13:45:00,51.8,37.7,30.42,WSW,237,0.2,7.4,58,0.00,,,-99.99,Meteorologica,2013-01-17 19:45:00,
2013-01-17 13:50:00,51.9,36.8,30.42,WSW,241,0.0,3.5,56,0.00,,,-99.99,Meteorologica,2013-01-17 19:50:00,
2013-01-17 13:55:00,52.1,36.7,30.42,WNW,287,5.1,9.2,55,0.00,,,-99.99,Meteorologica,2013-01-17 19:55:00,
2013-01-17 14:00:00,51.9,36.9,30.42,WSW,251,2.9,12.0,56,0.00,,,-99.99,Meteorologica,2013-01-17 20:00:00,
2013-01-17 14:05:00,51.8,36.8,30.41,WNW,295,1.3,9.3,56,0.00,,,-99.99,Meteorologica,2013-01-17 20:05:00,
2013-01-17 14:10:00,52.2,36.9,30.41,WNW,289,3.9,10.7,55,0.00,,,-99.99,Meteorologica,2013-01-17 20:10:00,
2013-01-17 14:15:00,52.3,36.3,30.41,West,276,0.0,5.0,54,0.00,,,-99.99,Meteorologica,2013-01-17 20:15:00,
2013-01-17 14:20:00,52.6,36.6,30.41,West,272,5.8,8.9,54,0.00,,,-99.99,Meteorologica,2013-01-17 20:20:00,
2013-01-17 14:25:00,52.7,36.6,30.41,West,278,6.2,8.6,54,0.00,,,-99.99,Meteorologica,2013-01-17 20:25:00,
2013-01-17 14:30:00,52.9,36.5,30.41,WSW,237,0.1,7.4,53,0.00,,,-99.99,Meteorologica,2013-01-17 20:30:00,
2013-01-17 14:35:00,53.2,36.0,30.41,NW,305,5.8,10.4,52,0.00,,,-99.99,Meteorologica,2013-01-17 20:35:00,
2013-01-17 14:40:00,52.9,36.2,30.41,WSW,253,1.8,7.6,53,0.00,,,-99.99,Meteorologica,2013-01-17 20:40:00,
2013-01-17 14:45:00,53.1,36.1,30.41,WNW,293,5.8,7.6,52,0.00,,,-99.99,Meteorologica,2013-01-17 20:45:00,
2013-01-17 14:50:00,53.0,36.2,30.41,WNW,285,0.0,0.0,52,0.00,,,-99.99,Meteorologica,2013-01-17 20:50:00,
2013-01-17 14:55:00,52.8,35.9,30.41,WNW,285,0.0,0.0,52,0.00,,,-99.99,Meteorologica,2013-01-17 20:55:00,
2013-01-17 15:00:00,52.8,35.7,30.41,West,264,5.3,7.4,52,0.00,,,-99.99,Meteorologica,2013-01-17 21:00:00,
2013-01-17 15:05:00,52.7,35.7,30.41,NW,309,2.2,6.2,52,0.00,,,-99.99,Meteorologica,2013-01-17 21:05:00,
2013-01-17 15:10:00,52.8,35.7,30.41,West,262,0.0,0.0,52,0.00,,,-99.99,Meteorologica,2013-01-17 21:10:00,
2013-01-17 15:15:00,52.8,36.0,30.41,WNW,286,0.0,5.4,52,0.00,,,-99.99,Meteorologica,2013-01-17 21:15:00,
2013-01-17 15:20:00,52.8,36.0,30.41,WNW,286,0.0,0.0,52,0.00,,,-99.99,Meteorologica,2013-01-17 21:20:00,
2013-01-17 15:25:00,52.7,36.1,30.41,WNW,286,0.0,0.0,53,0.00,,,-99.99,Meteorologica,2013-01-17 21:25:00,
2013-01-17 15:30:00,52.6,36.2,30.41,West,259,2.6,9.1,53,0.00,,,-99.99,Meteorologica,2013-01-17 21:30:00,
2013-01-17 15:35:00,52.7,36.4,30.41,West,271,0.0,0.0,53,0.00,,,-99.99,Meteorologica,2013-01-17 21:35:00,
2013-01-17 15:40:00,52.7,36.3,30.41,WNW,303,2.6,7.9,53,0.00,,,-99.99,Meteorologica,2013-01-17 21:40:00,
2013-01-17 15:45:00,52.6,36.0,30.41,NW,320,1.6,6.8,53,0.00,,,-99.99,Meteorologica,2013-01-17 21:45:00,
2013-01-17 15:50:00,52.8,36.1,30.41,NNW,340,0.0,5.0,52,0.00,,,-99.99,Meteorologica,2013-01-17 21:50:00,
2013-01-17 15:55:00,52.8,36.2,30.41,WNW,289,3.1,5.3,53,0.00,,,-99.99,Meteorologica,2013-01-17 21:55:00,
2013-01-17 16:00:00,52.8,36.3,30.41,WNW,289,0.0,0.0,53,0.00,,,-99.99,Meteorologica,2013-01-17 22:00:00,
2013-01-17 16:05:00,52.6,36.1,30.41,WNW,289,0.0,0.0,53,0.00,,,-99.99,Meteorologica,2013-01-17 22:05:00,
2013-01-17 16:10:00,52.7,36.1,30.41,WNW,289,0.0,0.0,53,0.00,,,-99.99,Meteorologica,2013-01-17 22:10:00,
2013-01-17 16:15:00,52.6,36.4,30.41,WNW,289,0.0,0.0,53,0.00,,,-99.99,Meteorologica,2013-01-17 22:15:00,
2013-01-17 16:20:00,52.4,36.0,30.41,WNW,289,0.0,0.0,53,0.00,,,-99.99,Meteorologica,2013-01-17 22:20:00,
2013-01-17 16:25:00,52.6,36.4,30.41,WNW,289,0.0,0.0,53,0.00,,,-99.99,Meteorologica,2013-01-17 22:25:00,
2013-01-17 16:30:00,52.3,36.0,30.41,WNW,289,0.0,0.0,53,0.00,,,-99.99,Meteorologica,2013-01-17 22:30:00,
2013-01-17 16:35:00,52.1,35.9,30.41,WNW,289,0.0,0.0,53,0.00,,,-99.99,Meteorologica,2013-01-17 22:35:00,
2013-01-17 16:40:00,52.0,36.0,30.40,WNW,289,0.0,0.0,54,0.00,,,-99.99,Meteorologica,2013-01-17 22:40:00,
2013-01-17 16:45:00,51.8,35.9,30.41,WNW,289,0.0,0.0,54,0.00,,,-99.99,Meteorologica,2013-01-17 22:45:00,
2013-01-17 16:50:00,51.8,36.1,30.41,WNW,289,0.0,0.0,54,0.00,,,-99.99,Meteorologica,2013-01-17 22:50:00,
2013-01-17 16:55:00,51.5,36.1,30.40,WNW,289,0.0,0.0,55,0.00,,,-99.99,Meteorologica,2013-01-17 22:55:00,
2013-01-17 17:00:00,51.0,35.8,30.40,WNW,289,0.0,0.0,55,0.00,,,-99.99,Meteorologica,2013-01-17 23:00:00,
2013-01-17 17:05:00,50.6,35.8,30.41,WNW,289,0.0,0.0,56,0.00,,,-99.99,Meteorologica,2013-01-17 23:05:00,
2013-01-17 17:10:00,50.2,35.7,30.40,WNW,289,0.0,0.0,57,0.00,,,-99.99,Meteorologica,2013-01-17 23:10:00,
2013-01-17 17:15:00,49.7,35.7,30.41,WNW,289,0.0,0.0,58,0.00,,,-99.99,Meteorologica,2013-01-17 23:15:00,
2013-01-17 17:20:00,49.1,35.5,30.41,WNW,289,0.0,0.0,59,0.00,,,-99.99,Meteorologica,2013-01-17 23:20:00,
2013-01-17 17:25:00,48.6,35.4,30.41,WNW,289,0.0,0.0,59,0.00,,,-99.99,Meteorologica,2013-01-17 23:25:00,
2013-01-17 17:30:00,48.1,-10.8,30.37,WNW,289,0.0,0.0,7,0.00,,,-99.99,Meteorologica,2013-01-17 23:30:00,
2013-01-17 17:35:00,47.6,35.1,30.41,WNW,289,0.0,0.0,61,0.00,,,-99.99,Meteorologica,2013-01-17 23:35:00,
2013-01-17 17:40:00,47.1,34.8,30.41,WNW,289,0.0,0.0,62,0.00,,,-99.99,Meteorologica,2013-01-17 23:40:00,
2013-01-17 17:45:00,46.4,34.7,30.41,WNW,289,0.0,0.0,63,0.00,,,-99.99,Meteorologica,2013-01-17 23:45:00,
2013-01-17 17:50:00,46.0,34.7,30.41,WNW,289,0.0,0.0,64,0.00,,,-99.99,Meteorologica,2013-01-17 23:50:00,
2013-01-17 17:55:00,45.2,34.3,30.41,WNW,289,0.0,0.0,65,0.00,,,-99.99,Meteorologica,2013-01-17 23:55:00,
2013-01-17 18:00:00,44.5,34.0,30.41,WNW,289,0.0,0.0,66,0.00,,,-99.99,Meteorologica,2013-01-18 00:00:00,
2013-01-17 18:05:00,43.8,33.8,30.41,WNW,289,0.0,0.0,67,0.00,,,-99.99,Meteorologica,2013-01-18 00:05:00,
2013-01-17 18:10:00,43.2,33.5,30.41,WNW,289,0.0,0.0,68,0.00,,,-99.99,Meteorologica,2013-01-18 00:10:00,
2013-01-17 18:15:00,42.7,33.4,30.40,WNW,289,0.0,0.0,69,0.00,,,-99.99,Meteorologica,2013-01-18 00:15:00,
2013-01-17 18:20:00,42.1,33.1,30.40,WNW,289,0.0,0.0,70,0.00,,,-99.99,Meteorologica,2013-01-18 00:20:00,
2013-01-17 18:25:00,41.7,33.2,30.41,WNW,289,0.0,0.0,71,0.00,,,-99.99,Meteorologica,2013-01-18 00:25:00,
2013-01-17 18:30:00,41.2,32.8,30.41,WNW,289,0.0,0.0,71,0.00,,,-99.99,Meteorologica,2013-01-18 00:30:00,
2013-01-17 18:35:00,41.0,32.8,30.41,WNW,289,0.0,0.0,72,0.00,,,-99.99,Meteorologica,2013-01-18 00:35:00,
2013-01-17 18:40:00,40.5,32.6,30.41,WNW,289,0.0,0.0,72,0.00,,,-99.99,Meteorologica,2013-01-18 00:40:00,
2013-01-17 18:45:00,40.1,32.3,30.41,WNW,289,0.0,0.0,73,0.00,,,-99.99,Meteorologica,2013-01-18 00:45:00,
2013-01-17 18:50:00,39.6,32.1,30.41,WNW,289,0.0,0.0,74,0.00,,,-99.99,Meteorologica,2013-01-18 00:50:00,
2013-01-17 18:55:00,39.0,31.7,30.41,WNW,289,0.0,0.0,74,0.00,,,-99.99,Meteorologica,2013-01-18 00:55:00,
2013-01-17 19:00:00,38.5,31.5,30.41,WNW,289,0.0,0.0,75,0.00,,,-99.99,Meteorologica,2013-01-18 01:00:00,
2013-01-17 19:05:00,38.0,31.3,30.41,WNW,289,0.0,0.0,76,0.00,,,-99.99,Meteorologica,2013-01-18 01:05:00,
2013-01-17 19:10:00,37.6,31.1,30.41,WNW,289,0.0,0.0,77,0.00,,,-99.99,Meteorologica,2013-01-18 01:10:00,
2013-01-17 19:15:00,37.1,30.9,30.41,WNW,289,0.0,0.0,78,0.00,,,-99.99,Meteorologica,2013-01-18 01:15:00,
2013-01-17 19:20:00,36.9,30.9,30.41,WNW,289,0.0,0.0,78,0.00,,,-99.99,Meteorologica,2013-01-18 01:20:00,
2013-01-17 19:26:00,36.5,30.6,30.41,WNW,289,0.0,0.0,78,0.00,,,-99.99,Meteorologica,2013-01-18 01:26:00,
2013-01-17 19:32:00,36.2,30.5,30.41,WNW,289,0.0,0.0,79,0.00,,,-99.99,Meteorologica,2013-01-18 01:32:00,
2013-01-17 19:37:00,35.8,30.2,30.41,WNW,289,0.0,0.0,79,0.00,,,-99.99,Meteorologica,2013-01-18 01:37:00,
2013-01-17 19:42:00,35.5,29.9,30.41,WNW,289,0.0,0.0,79,0.00,,,-99.99,Meteorologica,2013-01-18 01:42:00,
2013-01-17 19:47:00,35.2,29.8,30.41,WNW,289,0.0,0.0,80,0.00,,,-99.99,Meteorologica,2013-01-18 01:47:00,
2013-01-17 19:53:00,34.7,29.5,30.41,WNW,289,0.0,0.0,81,0.00,,,-99.99,Meteorologica,2013-01-18 01:53:00,
2013-01-17 19:58:00,34.4,29.3,30.41,WNW,289,0.0,0.0,81,0.00,,,-99.99,Meteorologica,2013-01-18 01:58:00,
2013-01-17 20:03:00,34.0,29.0,30.41,WNW,289,0.0,0.0,81,0.00,,,-99.99,Meteorologica,2013-01-18 02:03:00,
2013-01-17 20:08:00,33.7,28.9,30.41,WNW,289,0.0,0.0,82,0.00,,,-99.99,Meteorologica,2013-01-18 02:08:00,
2013-01-17 20:13:00,33.5,28.8,30.41,WNW,289,0.0,0.0,82,0.00,,,-99.99,Meteorologica,2013-01-18 02:13:00,
2013-01-17 20:18:00,33.4,28.8,30.40,WNW,289,0.0,0.0,83,0.00,,,-99.99,Meteorologica,2013-01-18 02:18:00,
2013-01-17 20:23:00,33.2,28.6,30.40,WNW,289,0.0,0.0,83,0.00,,,-99.99,Meteorologica,2013-01-18 02:23:00,
2013-01-17 20:28:00,33.0,28.6,30.40,WNW,289,0.0,0.0,83,0.00,,,-99.99,Meteorologica,2013-01-18 02:28:00,
2013-01-17 20:33:00,32.7,28.4,30.40,WNW,289,0.0,0.0,84,0.00,,,-99.99,Meteorologica,2013-01-18 02:33:00,
2013-01-17 20:38:00,32.3,28.2,30.40,WNW,289,0.0,0.0,84,0.00,,,-99.99,Meteorologica,2013-01-18 02:38:00,
2013-01-17 20:43:00,31.8,27.8,30.39,WNW,289,0.0,0.0,85,0.00,,,-99.99,Meteorologica,2013-01-18 02:43:00,
2013-01-17 20:48:00,31.5,27.6,30.39,WNW,289,0.0,0.0,85,0.00,,,-99.99,Meteorologica,2013-01-18 02:48:00,
2013-01-17 20:53:00,31.3,27.5,30.39,WNW,289,0.0,0.0,85,0.00,,,-99.99,Meteorologica,2013-01-18 02:53:00,
2013-01-17 20:58:00,31.0,27.3,30.39,WNW,289,0.0,0.0,86,0.00,,,-99.99,Meteorologica,2013-01-18 02:58:00,
2013-01-17 21:04:00,30.6,30.6,30.40,WNW,289,0.0,0.0,100,0.00,,,-99.99,Meteorologica,2013-01-18 03:04:00,
2013-01-17 21:09:00,30.4,27.0,30.39,WNW,289,0.0,0.0,87,0.00,,,-99.99,Meteorologica,2013-01-18 03:09:00,
2013-01-17 21:14:00,30.5,27.1,30.39,WNW,289,0.0,0.0,87,0.00,,,-99.99,Meteorologica,2013-01-18 03:14:00,
2013-01-17 21:19:00,30.6,27.2,30.39,WNW,289,0.0,0.0,87,0.00,,,-99.99,Meteorologica,2013-01-18 03:19:00,
2013-01-17 21:24:00,30.6,27.3,30.38,WNW,289,0.0,0.0,87,0.00,,,-99.99,Meteorologica,2013-01-18 03:24:00,
2013-01-17 21:29:00,30.6,27.2,30.38,WNW,289,0.0,0.0,87,0.00,,,-99.99,Meteorologica,2013-01-18 03:29:00,
2013-01-17 21:34:00,30.5,27.2,30.38,WNW,289,0.0,0.0,87,0.00,,,-99.99,Meteorologica,2013-01-18 03:34:00,
2013-01-17 21:39:00,30.6,27.4,30.38,WNW,289,0.0,0.0,87,0.00,,,-99.99,Meteorologica,2013-01-18 03:39:00,
2013-01-17 21:44:00,30.6,27.5,30.38,WNW,289,0.0,0.0,88,0.00,,,-99.99,Meteorologica,2013-01-18 03:44:00,
2013-01-17 21:49:00,30.7,27.4,30.38,WNW,289,0.0,0.0,87,0.00,,,-99.99,Meteorologica,2013-01-18 03:49:00,
2013-01-17 21:54:00,30.6,27.3,30.38,WNW,289,0.0,0.0,87,0.00,,,-99.99,Meteorologica,2013-01-18 03:54:00,
2013-01-17 21:59:00,30.5,27.3,30.38,WNW,289,0.0,0.0,87,0.00,,,-99.99,Meteorologica,2013-01-18 03:59:00,
2013-01-17 22:04:00,30.2,27.0,30.38,WNW,289,0.0,0.0,87,0.00,,,-99.99,Meteorologica,2013-01-18 04:04:00,
2013-01-17 22:09:00,30.0,26.9,30.37,WNW,289,0.0,0.0,88,0.00,,,-99.99,Meteorologica,2013-01-18 04:09:00,
2013-01-17 22:14:00,29.8,26.9,30.37,WNW,289,0.0,0.0,88,0.00,,,-99.99,Meteorologica,2013-01-18 04:14:00,
2013-01-17 22:19:00,29.6,26.7,30.37,WNW,289,0.0,0.0,88,0.00,,,-99.99,Meteorologica,2013-01-18 04:19:00,
2013-01-17 22:24:00,29.4,26.5,30.37,WNW,289,0.0,0.0,88,0.00,,,-99.99,Meteorologica,2013-01-18 04:24:00,
2013-01-17 22:29:00,29.1,26.3,30.37,WNW,289,0.0,0.0,89,0.00,,,-99.99,Meteorologica,2013-01-18 04:29:00,
2013-01-17 22:34:00,29.1,26.3,30.37,WNW,289,0.0,0.0,89,0.00,,,-99.99,Meteorologica,2013-01-18 04:34:00,
2013-01-17 22:39:00,28.7,25.9,30.36,WNW,289,0.0,0.0,89,0.00,,,-99.99,Meteorologica,2013-01-18 04:39:00,
2013-01-17 22:44:00,28.5,25.8,30.36,WNW,289,0.0,0.0,89,0.00,,,-99.99,Meteorologica,2013-01-18 04:44:00,
2013-01-17 22:49:00,28.2,25.6,30.36,WNW,289,0.0,0.0,90,0.00,,,-99.99,Meteorologica,2013-01-18 04:49:00,
2013-01-17 22:54:00,28.0,25.5,30.36,WNW,289,0.0,0.0,90,0.00,,,-99.99,Meteorologica,2013-01-18 04:54:00,
2013-01-17 22:59:00,28.1,25.6,30.36,WNW,289,0.0,0.0,90,0.00,,,-99.99,Meteorologica,2013-01-18 04:59:00,
2013-01-17 23:01:00,28.0,25.5,30.36,WNW,289,0.0,0.0,90,0.00,,,-99.99,Meteorologica,2013-01-18 05:01:00,
2013-01-17 23:02:00,28.1,25.6,30.36,WNW,289,0.0,0.0,90,0.00,,,-99.99,Meteorologica,2013-01-18 05:02:00,
2013-01-17 23:05:00,27.9,25.4,30.36,WNW,289,0.0,0.0,90,0.00,,,-99.99,Meteorologica,2013-01-18 05:05:00,
2013-01-17 23:08:00,28.1,25.6,30.36,WNW,289,0.0,0.0,90,0.00,,,-99.99,Meteorologica,2013-01-18 05:08:00,
2013-01-17 23:13:00,28.1,25.7,30.36,WNW,289,0.0,0.0,90,0.00,,,-99.99,Meteorologica,2013-01-18 05:13:00,
2013-01-17 23:18:00,28.1,25.8,30.36,WNW,289,0.0,0.0,91,0.00,,,-99.99,Meteorologica,2013-01-18 05:18:00,
2013-01-17 23:23:00,28.2,25.8,30.35,WNW,289,0.0,0.0,90,0.00,,,-99.99,Meteorologica,2013-01-18 05:23:00,
2013-01-17 23:28:00,28.3,25.9,30.35,WNW,289,0.0,0.0,90,0.00,,,-99.99,Meteorologica,2013-01-18 05:28:00,
2013-01-17 23:33:00,28.0,25.6,30.35,WNW,289,0.0,0.0,90,0.00,,,-99.99,Meteorologica,2013-01-18 05:33:00,
2013-01-17 23:38:00,28.0,25.7,30.35,WNW,289,0.0,0.0,91,0.00,,,-99.99,Meteorologica,2013-01-18 05:38:00,
2013-01-17 23:43:00,28.1,25.7,30.35,WNW,289,0.0,0.0,90,0.00,,,-99.99,Meteorologica,2013-01-18 05:43:00,
2013-01-17 23:48:00,28.0,25.7,30.34,WNW,289,0.0,0.0,91,0.00,,,-99.99,Meteorologica,2013-01-18 05:48:00,
2013-01-17 23:53:00,27.9,25.5,30.34,WNW,289,0.0,0.0,90,0.00,,,-99.99,Meteorologica,2013-01-18 05:53:00,
2013-01-17 23:58:00,27.7,25.3,30.34,WNW,289,0.0,0.0,90,0.00,,,-99.99,Meteorologica,2013-01-18 05:58:00,